createdAt,value
2023-03-29T04:15:09.924Z,1.20
2023-03-29T04:20:24.490Z,1.00
2023-03-29T04:22:56.137Z,1.40
2023-03-29T04:25:25.019Z,1.20
2023-03-29T04:28:30.794Z,1.00
2023-03-29T04:31:13.772Z,1.40
2023-03-29T04:40:26.634Z,1.60
2023-03-29T04:43:08.242Z,1.10
2023-03-29T04:45:38.395Z,0.90
2023-03-29T04:48:13.922Z,1.30
2023-03-29T04:50:48.444Z,1.30
2023-03-29T04:53:18.048Z,1.30
2023-03-29T04:55:47.470Z,0.80
2023-03-29T04:58:25.250Z,1.00
2023-03-29T05:00:58.405Z,1.00
2023-03-29T05:03:45.384Z,1.10
2023-03-29T05:06:19.365Z,1.10
2023-03-29T05:08:48.747Z,1.10
2023-03-29T05:11:27.994Z,1.10
2023-03-29T05:14:00.911Z,1.00
2023-03-29T05:16:30.508Z,1.00
2023-03-29T05:18:59.669Z,1.40
2023-03-29T05:21:30.958Z,1.20
2023-03-29T05:24:01.247Z,0.70
2023-03-29T05:26:52.619Z,1.50
2023-03-29T05:29:23.720Z,1.30
2023-03-29T05:31:59.893Z,1.00
2023-03-29T05:34:30.201Z,1.30
2023-03-29T05:37:01.743Z,1.40
2023-03-29T05:39:35.725Z,1.60
2023-03-29T05:42:06.590Z,1.20
2023-03-29T05:44:46.958Z,0.90
2023-03-29T05:47:19.520Z,1.20
2023-03-29T05:49:47.962Z,1.20
2023-03-29T05:52:24.171Z,1.20
2023-03-29T05:54:53.052Z,1.30
2023-03-29T05:57:22.336Z,1.60
2023-03-29T05:59:51.044Z,1.10
2023-03-29T06:02:20.252Z,1.40
2023-03-29T06:04:52.664Z,1.20
2023-03-29T06:07:39.112Z,1.20
2023-03-29T06:10:26.334Z,0.90
2023-03-29T06:13:01.061Z,0.90
2023-03-29T06:15:32.141Z,1.30
2023-03-29T06:18:06.259Z,1.30
2023-03-29T06:20:38.382Z,1.40
2023-03-29T06:23:11.576Z,1.40
2023-03-29T06:25:40.698Z,1.40
2023-03-29T06:28:10.173Z,1.70
2023-03-29T06:30:39.582Z,1.80
2023-03-29T06:33:09.944Z,1.20
2023-03-29T06:35:49.747Z,1.70
2023-03-29T06:38:26.890Z,1.60
2023-03-29T06:41:28.898Z,1.40
2023-03-29T06:44:10.585Z,1.40
2023-03-29T06:46:50.265Z,1.30
2023-03-29T06:49:19.118Z,1.50
2023-03-29T06:52:00.295Z,1.30
2023-03-29T06:54:28.685Z,1.30
2023-03-29T06:57:08.114Z,1.40
2023-03-29T06:59:38.337Z,1.40
2023-03-29T07:02:20.650Z,1.40
2023-03-29T07:05:01.730Z,1.20
2023-03-29T07:10:39.883Z,1.40
2023-03-29T07:13:30.747Z,1.40
2023-03-29T07:16:00.215Z,1.50
2023-03-29T07:18:55.376Z,1.60
2023-03-29T07:21:42.778Z,1.70
2023-03-29T07:24:13.310Z,1.40
2023-03-29T07:26:52.250Z,1.50
2023-03-29T07:29:29.619Z,1.10
2023-03-29T07:31:58.525Z,1.20
2023-03-29T07:34:49.523Z,1.50
2023-03-29T07:37:25.510Z,1.40
2023-03-29T07:39:54.165Z,1.50
2023-03-29T07:42:39.753Z,1.40
2023-03-29T07:45:10.588Z,1.70
2023-03-29T07:47:49.143Z,1.10
2023-03-29T07:50:18.430Z,1.50
2023-03-29T07:52:49.365Z,1.30
2023-03-29T07:55:17.915Z,1.30
2023-03-29T07:58:09.645Z,1.40
2023-03-29T08:00:38.722Z,1.50
2023-03-29T08:03:39.922Z,1.40
2023-03-29T08:06:08.980Z,1.40
2023-03-29T08:08:38.771Z,1.20
2023-03-29T08:11:12.797Z,1.40
2023-03-29T08:14:13.239Z,1.40
2023-03-29T08:16:58.049Z,1.30
2023-03-29T08:19:27.699Z,1.10
2023-03-29T08:22:05.808Z,1.10
2023-03-29T08:27:43.544Z,1.70
2023-03-29T08:30:15.663Z,1.70
2023-03-29T08:32:49.968Z,1.40
2023-03-29T08:35:20.492Z,1.50
2023-03-29T08:38:12.774Z,1.20
2023-03-29T08:40:42.023Z,1.50
2023-03-29T08:43:24.688Z,1.60
2023-03-29T08:46:18.469Z,1.50
2023-03-29T08:48:51.155Z,1.60
2023-03-29T08:51:36.834Z,1.30
2023-03-29T08:54:08.284Z,1.40
2023-03-29T08:59:28.441Z,1.30
2023-03-29T09:01:58.478Z,1.40
2023-03-29T09:04:35.721Z,1.30
2023-03-29T09:07:20.246Z,1.60
2023-03-29T09:09:48.924Z,1.50
2023-03-29T09:12:52.351Z,1.30
2023-03-29T09:15:28.764Z,1.50
2023-03-29T09:18:13.841Z,2.40
2023-03-29T09:21:11.632Z,1.20
2023-03-29T09:23:48.467Z,1.40
2023-03-29T09:26:31.644Z,1.60
2023-03-29T09:29:38.715Z,1.70
2023-03-29T09:32:23.416Z,1.50
2023-03-29T09:35:18.823Z,1.20
2023-03-29T09:37:48.766Z,1.30
2023-03-29T09:40:41.688Z,1.40
2023-03-29T09:43:18.556Z,1.20
2023-03-29T09:45:51.783Z,1.40
2023-03-29T09:48:20.094Z,1.60
2023-03-29T09:50:53.184Z,1.30
2023-03-29T09:53:22.079Z,1.30
2023-03-29T09:56:00.107Z,1.30
2023-03-29T09:58:46.692Z,1.50
2023-03-29T10:01:17.781Z,1.20
2023-03-29T10:03:52.548Z,1.40
2023-03-29T10:06:23.456Z,1.50
2023-03-29T10:08:57.972Z,1.40
2023-03-29T10:11:38.170Z,1.60
2023-03-29T10:14:33.829Z,1.30
2023-03-29T10:17:06.427Z,1.50
2023-03-29T10:19:35.835Z,1.00
2023-03-29T10:22:18.932Z,1.20
2023-03-29T10:24:52.418Z,1.40
2023-03-29T10:27:28.236Z,1.60
2023-03-29T10:30:00.648Z,1.40
2023-03-29T10:32:34.565Z,1.40
2023-03-29T10:35:11.073Z,1.60
2023-03-29T10:37:44.956Z,1.70
2023-03-29T10:40:27.738Z,1.40
2023-03-29T10:42:59.185Z,1.00
2023-03-29T10:45:32.090Z,1.30
2023-03-29T10:48:00.683Z,1.60
2023-03-29T10:50:38.453Z,1.50
2023-03-29T10:53:20.442Z,1.10
2023-03-29T10:55:55.170Z,1.30
2023-03-29T10:58:55.698Z,1.30
2023-03-29T11:01:30.284Z,1.40
2023-03-29T11:04:02.485Z,1.30
2023-03-29T11:07:27.508Z,1.30
2023-03-29T11:10:05.405Z,1.20
2023-03-29T11:12:58.665Z,1.60
2023-03-29T11:16:02.879Z,0.90
2023-03-29T11:19:10.478Z,1.20
2023-03-29T11:22:01.113Z,1.30
2023-03-29T11:25:10.822Z,1.60
2023-03-29T11:27:45.344Z,1.60
2023-03-29T11:30:57.407Z,1.30
2023-03-29T11:33:33.979Z,1.10
2023-03-29T11:36:12.997Z,1.40
2023-03-29T11:38:54.121Z,1.30
2023-03-29T11:41:27.219Z,1.30
2023-03-29T11:46:48.392Z,1.30
2023-03-29T11:49:19.874Z,1.20
2023-03-29T11:51:57.902Z,1.10
2023-03-29T11:54:36.716Z,1.30
2023-03-29T11:57:29.941Z,1.30
2023-03-29T12:00:06.181Z,2.00
2023-03-29T12:02:46.945Z,1.30
2023-03-29T12:05:33.236Z,1.50
2023-03-29T12:08:16.683Z,1.30
2023-03-29T12:13:15.441Z,1.10
2023-03-29T12:15:53.247Z,1.50
2023-03-29T12:18:33.809Z,1.40
2023-03-29T12:21:04.188Z,1.40
2023-03-29T12:23:35.276Z,1.40
2023-03-29T12:26:35.288Z,1.20
2023-03-29T12:29:26.718Z,1.40
2023-03-29T12:32:30.038Z,1.20
2023-03-29T12:35:31.295Z,1.50
2023-03-29T12:38:19.707Z,1.60
2023-03-29T12:41:22.080Z,1.30
2023-03-29T12:44:13.736Z,1.20
2023-03-29T12:46:55.395Z,1.20
2023-03-29T12:49:36.400Z,1.10
2023-03-29T12:52:16.296Z,1.10
2023-03-29T12:54:56.472Z,1.30
2023-03-29T12:57:41.657Z,1.40
2023-03-29T13:00:13.661Z,1.20
2023-03-29T13:02:46.105Z,1.40
2023-03-29T13:05:29.521Z,1.20
2023-03-29T13:10:38.557Z,1.60
2023-03-29T13:13:24.221Z,1.30
2023-03-29T13:15:53.075Z,1.10
2023-03-29T13:19:04.322Z,0.80
2023-03-29T13:21:33.443Z,1.30
2023-03-29T13:24:31.590Z,1.20
2023-03-29T13:27:06.440Z,1.20
2023-03-29T13:29:53.735Z,1.30
2023-03-29T13:32:46.583Z,1.20
2023-03-29T13:35:21.524Z,1.40
2023-03-29T13:38:09.253Z,1.10
2023-03-29T13:40:42.244Z,1.20
2023-03-29T13:43:21.471Z,1.30
2023-03-29T13:45:59.348Z,1.00
2023-03-29T13:48:33.764Z,1.00
2023-03-29T13:51:08.356Z,1.00
2023-03-29T13:53:40.083Z,0.80
2023-03-29T13:56:12.256Z,1.20
2023-03-29T13:58:51.683Z,1.00
2023-03-29T14:01:33.160Z,1.10
2023-03-29T14:04:02.001Z,1.00
2023-03-29T14:06:32.987Z,1.00
2023-03-29T14:09:05.238Z,1.50
2023-03-29T14:11:35.288Z,1.00
2023-03-29T14:14:08.681Z,1.10
2023-03-29T14:19:40.556Z,0.80
2023-03-29T14:22:11.287Z,0.90
2023-03-29T14:24:48.377Z,1.00
2023-03-29T14:27:17.053Z,1.20
2023-03-29T14:29:47.824Z,0.90
2023-03-29T14:32:18.216Z,1.30
2023-03-29T14:34:50.268Z,1.20
2023-03-29T14:37:24.018Z,1.20
2023-03-29T14:39:52.360Z,1.00
2023-03-29T14:42:24.731Z,1.20
2023-03-29T14:44:58.257Z,1.20
2023-03-29T14:47:28.702Z,0.90
2023-03-29T14:50:00.934Z,1.00
2023-03-29T14:52:32.075Z,1.20
2023-03-29T14:55:02.180Z,1.00
2023-03-29T14:57:35.884Z,1.00
2023-03-29T15:00:19.329Z,1.10
2023-03-29T15:02:51.218Z,1.30
2023-03-29T15:05:40.563Z,0.80
2023-03-29T15:08:34.017Z,1.10
2023-03-29T15:11:23.546Z,0.70
2023-03-29T15:13:54.546Z,0.90
2023-03-29T15:16:23.605Z,1.00
2023-03-29T15:18:52.824Z,0.90
2023-03-29T15:21:21.617Z,0.70
2023-03-29T15:23:57.305Z,0.90
2023-03-29T15:26:31.277Z,1.30
2023-03-29T15:29:15.131Z,0.80
2023-03-29T15:31:46.576Z,1.10
2023-03-29T15:34:33.889Z,1.40
2023-03-29T15:37:04.457Z,1.20
2023-03-29T15:39:35.291Z,1.00
2023-03-29T15:42:03.833Z,1.20
2023-03-29T15:44:33.655Z,1.30
2023-03-29T15:47:02.393Z,1.10
2023-03-29T15:49:30.913Z,0.70
2023-03-29T15:51:59.956Z,1.00
2023-03-29T15:54:32.501Z,0.90
2023-03-29T15:57:03.946Z,0.70
2023-03-29T15:59:34.074Z,1.00
2023-03-29T16:02:03.694Z,0.90
2023-03-29T16:04:32.655Z,0.80
2023-03-29T16:07:02.569Z,0.90
2023-03-29T16:09:31.656Z,1.00
2023-03-29T16:12:03.109Z,0.90
2023-03-29T16:14:34.028Z,1.00
2023-03-29T16:17:03.438Z,1.10
2023-03-29T16:19:32.444Z,0.80
2023-03-29T16:22:02.566Z,1.00
2023-03-29T16:24:32.369Z,1.40
2023-03-29T16:27:02.051Z,1.20
2023-03-29T16:29:31.130Z,1.00
2023-03-29T16:32:00.380Z,1.10
2023-03-29T16:34:30.294Z,0.80
2023-03-29T16:36:58.969Z,1.10
2023-03-29T16:39:29.601Z,1.00
2023-03-29T16:41:58.296Z,1.60
2023-03-29T16:44:28.301Z,0.80
2023-03-29T16:46:59.660Z,1.20
2023-03-29T16:49:28.793Z,1.10
2023-03-29T16:52:01.954Z,1.30
2023-03-29T16:54:32.976Z,0.90
2023-03-29T16:57:02.098Z,0.90
2023-03-29T16:59:31.700Z,1.10
2023-03-29T17:02:00.777Z,1.00
2023-03-29T17:04:29.536Z,0.90
2023-03-29T17:06:58.764Z,0.80
2023-03-29T17:09:29.877Z,1.00
2023-03-29T17:11:58.911Z,0.90
2023-03-29T17:14:27.805Z,1.00
2023-03-29T17:16:58.943Z,0.90
2023-03-29T17:19:28.035Z,0.90
2023-03-29T17:21:57.219Z,1.20
2023-03-29T17:26:58.815Z,0.90
2023-03-29T17:29:27.575Z,1.10
2023-03-29T17:31:56.437Z,0.80
2023-03-29T17:34:27.423Z,0.90
2023-03-29T17:36:56.603Z,0.90
2023-03-29T17:39:27.546Z,1.00
2023-03-29T17:41:56.135Z,0.70
2023-03-29T17:44:27.269Z,1.00
2023-03-29T17:46:55.786Z,0.70
2023-03-29T17:49:24.750Z,1.40
2023-03-29T17:51:53.845Z,1.20
2023-03-29T17:54:22.623Z,1.20
2023-03-29T17:56:51.893Z,1.00
2023-03-29T17:59:21.633Z,1.30
2023-03-29T18:01:52.306Z,1.20
2023-03-29T18:04:21.463Z,1.50
2023-03-29T18:06:50.200Z,1.10
2023-03-29T18:09:26.683Z,1.40
2023-03-29T18:11:57.042Z,1.50
2023-03-29T18:14:26.353Z,1.20
2023-03-29T18:16:59.602Z,1.50
2023-03-29T18:19:29.761Z,1.10
2023-03-29T18:21:58.337Z,1.20
2023-03-29T18:24:27.738Z,1.20
2023-03-29T18:26:56.331Z,1.20
2023-03-29T18:29:25.829Z,0.90
2023-03-29T18:31:54.571Z,0.90
2023-03-29T18:34:23.718Z,1.00
2023-03-29T18:36:54.036Z,1.00
2023-03-29T18:39:23.027Z,1.10
2023-03-29T18:41:52.434Z,1.00
2023-03-29T18:44:22.278Z,1.00
2023-03-29T18:46:50.933Z,1.10
2023-03-29T18:49:19.723Z,1.10
2023-03-29T18:51:50.053Z,1.20
2023-03-29T18:54:18.736Z,1.50
2023-03-29T18:56:47.987Z,0.70
2023-03-29T18:59:19.070Z,1.00
2023-03-29T19:01:48.013Z,1.30
2023-03-29T19:04:16.647Z,1.20
2023-03-29T19:06:46.464Z,1.20
2023-03-29T19:09:15.139Z,1.30
2023-03-29T19:11:44.052Z,1.00
2023-03-29T19:14:15.892Z,1.20
2023-03-29T19:16:44.482Z,1.30
2023-03-29T19:19:13.379Z,1.50
2023-03-29T19:21:44.509Z,2.10
2023-03-29T19:24:13.704Z,1.80
2023-03-29T19:26:42.802Z,1.80
2023-03-29T19:29:11.894Z,1.60
2023-03-29T19:31:40.649Z,1.60
2023-03-29T19:34:12.548Z,1.50
2023-03-29T19:36:41.331Z,1.70
2023-03-29T19:39:10.117Z,2.30
2023-03-29T19:41:40.039Z,2.90
2023-03-29T19:44:10.558Z,1.90
2023-03-29T19:46:41.223Z,1.50
2023-03-29T19:49:13.968Z,1.70
2023-03-29T19:51:44.089Z,1.40
2023-03-29T19:54:13.696Z,1.10
2023-03-29T19:56:43.263Z,1.50
2023-03-29T19:59:15.140Z,1.50
2023-03-29T20:01:51.335Z,1.60
2023-03-29T20:04:21.183Z,1.70
2023-03-29T20:06:49.818Z,1.60
2023-03-29T20:09:18.909Z,1.40
2023-03-29T20:11:48.722Z,1.50
2023-03-29T20:14:17.719Z,1.60
2023-03-29T20:16:46.900Z,1.80
2023-03-29T20:19:18.166Z,1.40
2023-03-29T20:21:46.845Z,2.00
2023-03-29T20:24:17.076Z,1.50
2023-03-29T20:26:45.770Z,1.40
2023-03-29T20:29:17.935Z,1.60
2023-03-29T20:31:47.366Z,1.70
2023-03-29T20:34:18.366Z,1.70
2023-03-29T20:36:47.228Z,1.40
2023-03-29T20:39:19.085Z,1.90
2023-03-29T20:41:48.042Z,1.90
2023-03-29T20:44:19.808Z,1.10
2023-03-29T20:54:05.600Z,1.40
2023-03-29T20:56:40.076Z,1.70
2023-03-29T20:59:13.615Z,1.50
2023-03-29T21:01:42.692Z,1.60
2023-03-29T21:04:11.808Z,1.50
2023-03-29T21:06:41.726Z,2.10
2023-03-29T21:09:10.605Z,1.60
2023-03-29T21:11:41.757Z,1.70
2023-03-29T21:14:11.464Z,1.70
2023-03-29T21:16:44.040Z,1.70
2023-03-29T21:19:15.186Z,1.30
2023-03-29T21:21:45.069Z,1.80
2023-03-29T21:24:14.186Z,1.30
2023-03-29T21:26:43.903Z,1.40
2023-03-29T21:29:12.893Z,1.20
2023-03-29T21:31:42.129Z,1.50
2023-03-29T21:34:10.891Z,1.00
2023-03-29T21:36:40.988Z,1.40
2023-03-29T21:39:09.675Z,1.30
2023-03-29T21:41:38.366Z,1.30
2023-03-29T21:44:09.607Z,1.50
2023-03-29T21:46:39.701Z,1.50
2023-03-29T21:49:08.517Z,1.50
2023-03-29T21:51:37.721Z,1.60
2023-03-29T21:54:06.707Z,1.90
2023-03-29T21:56:35.808Z,1.90
2023-03-29T21:59:04.532Z,1.80
2023-03-29T22:01:33.330Z,1.50
2023-03-29T22:04:02.065Z,1.70
2023-03-29T22:06:31.261Z,1.80
2023-03-29T22:09:01.079Z,1.20
2023-03-29T22:11:29.870Z,1.10
2023-03-29T22:13:58.879Z,1.10
2023-03-29T22:16:28.527Z,1.70
2023-03-29T22:18:58.270Z,1.40
2023-03-29T22:21:31.673Z,1.50
2023-03-29T22:24:01.581Z,2.00
2023-03-29T22:26:31.580Z,1.70
2023-03-29T22:29:03.048Z,1.90
2023-03-29T22:31:32.696Z,1.70
2023-03-29T22:34:03.184Z,2.10
2023-03-29T22:36:32.178Z,1.70
2023-03-29T22:39:01.001Z,1.80
2023-03-29T22:41:29.852Z,2.50
2023-03-29T22:43:59.878Z,2.20
2023-03-29T22:46:30.778Z,1.70
2023-03-29T22:49:00.521Z,1.40
2023-03-29T22:51:31.970Z,1.80
2023-03-29T22:54:00.860Z,1.40
2023-03-29T22:56:29.644Z,2.60
2023-03-29T22:58:59.162Z,2.40
2023-03-29T23:01:27.793Z,2.20
2023-03-29T23:03:57.062Z,2.20
2023-03-29T23:06:25.823Z,2.80
2023-03-29T23:08:54.410Z,2.10
2023-03-29T23:11:28.930Z,2.00
2023-03-29T23:13:57.720Z,2.30
2023-03-29T23:16:26.944Z,2.50
2023-03-29T23:18:55.819Z,2.50
2023-03-29T23:21:25.632Z,2.30
2023-03-29T23:23:54.790Z,2.40
2023-03-29T23:26:23.600Z,2.00
2023-03-29T23:28:54.762Z,1.70
2023-03-29T23:31:24.599Z,2.10
2023-03-29T23:33:53.965Z,2.30
2023-03-29T23:36:23.271Z,2.20
2023-03-29T23:38:52.864Z,1.60
2023-03-29T23:41:21.345Z,2.80
2023-03-29T23:43:54.035Z,2.70
2023-03-29T23:46:22.831Z,3.20
2023-03-29T23:48:51.599Z,3.10
2023-03-29T23:51:23.682Z,2.30
2023-03-29T23:53:52.864Z,2.60
2023-03-29T23:56:29.325Z,2.60
2023-03-29T23:58:58.214Z,2.20
